KRNC/RNC METAR and TAF weather

Enter ICAO airport designator
Station Type Date Time Source
KRNC METAR 2018/12/11 23:15 UTC NOAA

KRNC 112315Z AUTO 00000KT 10SM CLR 03/M03 A3025 RMK A01


Station Type Date Time Source
KRNC Decoded METAR 2018/12/11 23:15 UTC NOAA

Station name not available
Dec 11, 2018 - 06:15 PM EST / 2018.12.11 2315 UTC
Wind: Calm:0
Visibility: 10 mile(s):0
Sky conditions: clear
Temperature: 37 F (3 C)
Dew Point: 26 F (-3 C)
Relative Humidity: 64%
Pressure (altimeter): 30.25 in. Hg (1024 hPa)
ob: KRNC 112315Z AUTO 00000KT 10SM CLR 03/M03 A3025 RMK A01
cycle: 23

Station Type Date Time Source
KRNC TAF 2009/08/31 19:45 UTC NOAA

METAR KRNC 311945Z AUTO 35008KT 10SM CLR 25/12 A3011
RMK AO1 T02500116 $


Example: see airport list